createdAt,value
2018-10-17T00:02:26.087Z,13.40
2018-10-17T00:05:59.303Z,13.30
2018-10-17T00:09:32.508Z,13.20
2018-10-17T00:13:05.786Z,13.20
2018-10-17T00:16:38.946Z,13.10
2018-10-17T00:20:12.156Z,13.10
2018-10-17T00:23:45.391Z,13.00
2018-10-17T00:27:18.625Z,13.00
2018-10-17T00:30:51.840Z,12.90
2018-10-17T00:34:25.060Z,12.90
2018-10-17T00:37:58.278Z,12.90
2018-10-17T00:41:31.497Z,12.80
2018-10-17T00:45:05.207Z,12.80
2018-10-17T00:48:38.415Z,12.70
2018-10-17T00:52:11.642Z,12.60
2018-10-17T00:55:44.850Z,12.60
2018-10-17T00:59:18.081Z,12.50
2018-10-17T01:02:51.307Z,12.50
2018-10-17T01:06:24.535Z,12.40
2018-10-17T01:09:57.769Z,12.40
2018-10-17T01:13:30.993Z,12.30
2018-10-17T01:17:04.337Z,12.30
2018-10-17T01:20:37.584Z,12.30
2018-10-17T01:24:10.829Z,12.30
2018-10-17T01:27:44.067Z,12.30
2018-10-17T01:31:17.384Z,12.30
2018-10-17T01:34:50.543Z,12.30
2018-10-17T01:38:23.785Z,12.30
2018-10-17T01:41:57.027Z,12.30
2018-10-17T01:45:30.267Z,12.30
2018-10-17T01:49:03.534Z,12.20
2018-10-17T01:52:36.759Z,12.20
2018-10-17T01:56:09.991Z,12.20
2018-10-17T01:59:43.221Z,12.20
2018-10-17T02:03:16.444Z,12.10
2018-10-17T02:06:49.671Z,12.00
2018-10-17T02:10:22.914Z,12.00
2018-10-17T02:13:56.153Z,11.90
2018-10-17T02:17:29.388Z,11.90
2018-10-17T02:21:02.632Z,11.90
2018-10-17T02:24:35.868Z,11.90
2018-10-17T02:28:09.142Z,11.90
2018-10-17T02:31:42.381Z,11.80
2018-10-17T02:35:16.952Z,11.80
2018-10-17T02:38:50.105Z,11.80
2018-10-17T02:42:23.348Z,11.80
2018-10-17T02:45:56.571Z,11.80
2018-10-17T02:49:29.804Z,11.80
2018-10-17T02:53:03.107Z,11.70
2018-10-17T02:56:36.274Z,11.70
2018-10-17T03:00:09.922Z,11.70
2018-10-17T03:03:43.164Z,11.70
2018-10-17T03:07:16.406Z,11.60
2018-10-17T03:10:49.626Z,11.60
2018-10-17T03:14:22.859Z,11.60
2018-10-17T03:17:56.095Z,11.60
2018-10-17T03:21:29.328Z,11.50
2018-10-17T03:25:02.583Z,11.50
2018-10-17T03:28:35.811Z,11.50
2018-10-17T03:32:09.050Z,11.40
2018-10-17T03:35:42.349Z,11.40
2018-10-17T03:39:15.538Z,11.40
2018-10-17T03:42:48.769Z,11.30
2018-10-17T03:46:22.009Z,11.30
2018-10-17T03:49:55.329Z,11.20
2018-10-17T03:53:28.522Z,11.20
2018-10-17T03:57:01.848Z,11.20
2018-10-17T04:00:35.072Z,11.20
2018-10-17T04:04:08.304Z,11.20
2018-10-17T04:07:41.519Z,11.10
2018-10-17T04:11:14.783Z,11.10
2018-10-17T04:14:47.995Z,11.10
2018-10-17T04:18:21.218Z,11.10
2018-10-17T04:21:54.460Z,11.00
2018-10-17T04:25:27.706Z,11.00
2018-10-17T04:29:00.977Z,11.00
2018-10-17T04:32:34.168Z,10.90
2018-10-17T04:36:07.574Z,10.80
2018-10-17T04:39:40.787Z,10.70
2018-10-17T04:43:14.098Z,10.70
2018-10-17T04:46:47.249Z,10.70
2018-10-17T04:50:20.486Z,10.70
2018-10-17T04:53:53.724Z,10.70
2018-10-17T04:57:26.956Z,10.70
2018-10-17T05:01:00.254Z,10.70
2018-10-17T05:04:33.513Z,10.70
2018-10-17T05:08:06.719Z,10.60
2018-10-17T05:11:40.464Z,10.60
2018-10-17T05:15:13.706Z,10.60
2018-10-17T05:18:46.939Z,10.60
2018-10-17T05:22:20.157Z,10.60
2018-10-17T05:25:53.425Z,10.60
2018-10-17T05:29:26.653Z,10.50
2018-10-17T05:32:59.908Z,10.50
2018-10-17T05:36:33.218Z,10.60
2018-10-17T05:40:06.521Z,10.60
2018-10-17T05:43:39.753Z,10.60
2018-10-17T05:47:13.507Z,10.60
2018-10-17T05:50:46.761Z,10.60
2018-10-17T05:54:20.354Z,10.60
2018-10-17T05:57:54.200Z,10.60
2018-10-17T06:01:27.519Z,10.60
2018-10-17T06:05:00.779Z,10.60
2018-10-17T06:08:33.995Z,10.50
2018-10-17T06:12:07.231Z,10.50
2018-10-17T06:15:40.460Z,10.50
2018-10-17T06:19:14.292Z,10.40
2018-10-17T06:22:47.461Z,10.40
2018-10-17T06:26:20.907Z,10.40
2018-10-17T06:29:54.151Z,10.40
2018-10-17T06:33:27.380Z,10.50
2018-10-17T06:37:00.655Z,10.50
2018-10-17T06:40:33.880Z,10.60
2018-10-17T06:44:07.565Z,10.60
2018-10-17T06:47:40.775Z,10.70
2018-10-17T06:51:14.101Z,10.70
2018-10-17T06:54:47.312Z,10.70
2018-10-17T06:58:20.551Z,10.70
2018-10-17T07:01:53.837Z,10.80
2018-10-17T07:05:27.006Z,10.80
2018-10-17T07:09:00.244Z,10.90
2018-10-17T07:12:33.486Z,11.00
2018-10-17T07:16:06.782Z,11.00
2018-10-17T07:19:39.997Z,11.00
2018-10-17T07:23:13.305Z,11.10
2018-10-17T07:26:46.485Z,11.10
2018-10-17T07:30:19.768Z,11.10
2018-10-17T07:33:53.000Z,11.20
2018-10-17T07:37:26.238Z,11.30
2018-10-17T07:40:59.499Z,11.40
2018-10-17T07:44:32.707Z,11.40
2018-10-17T07:48:05.996Z,11.50
2018-10-17T07:51:39.264Z,11.60
2018-10-17T07:55:12.841Z,11.70
2018-10-17T07:58:46.070Z,11.80
2018-10-17T08:02:19.299Z,11.80
2018-10-17T08:05:52.559Z,12.00
2018-10-17T08:09:25.780Z,12.10
2018-10-17T08:12:59.031Z,12.20
2018-10-17T08:16:32.257Z,12.30
2018-10-17T08:20:07.357Z,12.40
2018-10-17T08:23:40.576Z,12.50
2018-10-17T08:27:13.855Z,12.60
2018-10-17T08:30:47.059Z,12.70
2018-10-17T08:34:20.303Z,12.80
2018-10-17T08:37:53.890Z,12.90
2018-10-17T08:41:26.765Z,13.00
2018-10-17T08:45:00.152Z,13.10
2018-10-17T08:48:33.319Z,13.20
2018-10-17T08:52:06.560Z,13.40
2018-10-17T08:55:39.793Z,13.50
2018-10-17T08:59:13.469Z,13.70
2018-10-17T09:02:46.692Z,13.80
2018-10-17T09:06:20.011Z,14.00
2018-10-17T09:09:53.163Z,14.10
2018-10-17T09:13:26.462Z,14.30
2018-10-17T09:16:59.647Z,14.50
2018-10-17T09:20:33.224Z,14.60
2018-10-17T09:24:06.173Z,14.80
2018-10-17T09:27:39.368Z,14.90
2018-10-17T09:31:12.601Z,15.00
2018-10-17T09:34:45.845Z,15.20
2018-10-17T09:38:19.075Z,15.30
2018-10-17T09:41:52.357Z,15.50
2018-10-17T09:45:25.557Z,15.60
2018-10-17T09:48:58.784Z,15.80
2018-10-17T09:52:31.997Z,15.90
2018-10-17T09:56:05.292Z,16.00
2018-10-17T09:59:38.526Z,16.10
2018-10-17T10:03:11.749Z,16.30
2018-10-17T10:06:44.967Z,16.40
2018-10-17T10:10:18.268Z,16.40
2018-10-17T10:13:51.460Z,16.50
2018-10-17T10:17:24.732Z,16.60
2018-10-17T10:20:57.930Z,16.80
2018-10-17T10:24:31.162Z,16.90
2018-10-17T10:28:04.544Z,17.00
2018-10-17T10:31:37.682Z,17.10
2018-10-17T10:35:10.923Z,17.30
2018-10-17T10:38:44.165Z,17.40
2018-10-17T10:42:17.499Z,17.50
2018-10-17T10:45:50.645Z,17.60
2018-10-17T10:49:23.873Z,17.70
2018-10-17T10:52:57.134Z,17.80
2018-10-17T10:56:30.341Z,17.90
2018-10-17T11:00:03.636Z,18.00
2018-10-17T11:03:36.873Z,18.10
2018-10-17T11:07:10.111Z,18.30
2018-10-17T11:10:43.340Z,18.30
2018-10-17T11:14:16.793Z,18.40
2018-10-17T11:17:49.824Z,18.50
2018-10-17T11:21:23.053Z,18.70
2018-10-17T11:24:56.269Z,18.80
2018-10-17T11:28:29.492Z,18.90
2018-10-17T11:32:02.794Z,19.00
2018-10-17T11:35:35.968Z,19.10
2018-10-17T11:39:10.037Z,19.20
2018-10-17T11:42:43.226Z,19.30
2018-10-17T11:46:16.466Z,19.30
2018-10-17T11:49:49.716Z,19.40
2018-10-17T11:53:22.953Z,19.50
2018-10-17T11:56:56.215Z,19.50
2018-10-17T12:00:29.437Z,19.60
2018-10-17T12:04:03.019Z,19.60
2018-10-17T12:07:35.944Z,19.60
2018-10-17T12:11:09.212Z,19.70
2018-10-17T12:14:42.460Z,19.70
2018-10-17T12:18:15.796Z,19.80
2018-10-17T12:21:48.944Z,19.80
2018-10-17T12:25:22.176Z,19.90
2018-10-17T12:28:55.418Z,20.00
2018-10-17T12:32:28.644Z,20.00
2018-10-17T12:36:01.901Z,20.00
2018-10-17T12:39:35.179Z,20.00
2018-10-17T12:43:08.356Z,20.10
2018-10-17T12:46:41.594Z,20.10
2018-10-17T12:50:14.863Z,20.10
2018-10-17T12:53:48.252Z,20.10
2018-10-17T12:57:21.477Z,20.10
2018-10-17T13:00:54.931Z,20.10
2018-10-17T13:04:28.128Z,20.10
2018-10-17T13:08:01.372Z,20.20
2018-10-17T13:11:34.645Z,20.20
2018-10-17T13:15:09.075Z,20.20
2018-10-17T13:18:42.235Z,20.20
2018-10-17T13:22:15.464Z,20.10
2018-10-17T13:25:48.697Z,20.10
2018-10-17T13:29:21.933Z,20.10
2018-10-17T13:32:55.145Z,20.00
2018-10-17T13:36:28.379Z,20.00
2018-10-17T13:40:01.636Z,20.10
2018-10-17T13:43:34.877Z,20.10
2018-10-17T13:47:08.147Z,20.10
2018-10-17T13:50:41.361Z,20.10
2018-10-17T13:54:14.599Z,20.10
2018-10-17T13:57:47.922Z,20.20
2018-10-17T14:01:21.065Z,20.20
2018-10-17T14:04:54.504Z,20.20
2018-10-17T14:08:27.741Z,20.20
2018-10-17T14:12:00.994Z,20.20
2018-10-17T14:15:34.230Z,20.20
2018-10-17T14:19:07.449Z,20.20
2018-10-17T14:22:40.690Z,20.20
2018-10-17T14:26:13.937Z,20.20
2018-10-17T14:29:47.402Z,20.20
2018-10-17T14:33:20.643Z,20.20
2018-10-17T14:36:53.900Z,20.20
2018-10-17T14:40:27.128Z,20.20
2018-10-17T14:44:00.372Z,20.20
2018-10-17T14:47:33.613Z,20.10
2018-10-17T14:51:06.882Z,20.10
2018-10-17T14:54:40.136Z,20.10
2018-10-17T14:58:13.405Z,20.10
2018-10-17T15:01:46.627Z,20.10
2018-10-17T15:05:19.996Z,20.00
2018-10-17T15:08:53.152Z,20.00
2018-10-17T15:12:26.366Z,20.00
2018-10-17T15:15:59.595Z,20.00
2018-10-17T15:19:32.824Z,20.00
2018-10-17T15:23:06.080Z,20.00
2018-10-17T15:26:39.312Z,20.00
2018-10-17T15:30:12.588Z,19.90
2018-10-17T15:33:45.790Z,19.80
2018-10-17T15:37:19.048Z,19.80
2018-10-17T15:40:52.277Z,19.70
2018-10-17T15:44:25.500Z,19.60
2018-10-17T15:47:58.781Z,19.50
2018-10-17T15:51:32.004Z,19.40
2018-10-17T15:55:05.601Z,19.30
2018-10-17T15:58:38.844Z,19.30
2018-10-17T16:02:12.149Z,19.30
2018-10-17T16:05:45.338Z,19.30
2018-10-17T16:09:18.585Z,19.20
2018-10-17T16:12:51.820Z,19.20
2018-10-17T16:16:25.065Z,19.10
2018-10-17T16:19:58.377Z,19.10
2018-10-17T16:23:31.596Z,19.00
2018-10-17T16:27:05.028Z,18.80
2018-10-17T16:30:38.310Z,18.70
2018-10-17T16:34:11.491Z,18.50
2018-10-17T16:37:44.724Z,18.40
2018-10-17T16:41:18.038Z,18.30
2018-10-17T16:44:51.208Z,18.20
2018-10-17T16:48:24.443Z,18.20
2018-10-17T16:51:57.703Z,18.10
2018-10-17T16:55:30.948Z,18.00
2018-10-17T16:59:04.181Z,18.00
2018-10-17T17:02:37.437Z,17.90
2018-10-17T17:06:10.791Z,17.80
2018-10-17T17:09:43.917Z,17.80
2018-10-17T17:13:17.176Z,17.80
2018-10-17T17:16:50.401Z,17.70
2018-10-17T17:20:23.639Z,17.70
2018-10-17T17:23:56.901Z,17.60
2018-10-17T17:27:30.140Z,17.50
2018-10-17T17:31:03.372Z,17.50
2018-10-17T17:34:36.979Z,17.40
2018-10-17T17:38:10.227Z,17.40
2018-10-17T17:41:43.473Z,17.30
2018-10-17T17:45:16.710Z,17.20
2018-10-17T17:48:49.940Z,17.20
2018-10-17T17:52:23.236Z,17.10
2018-10-17T17:55:56.450Z,17.00
2018-10-17T17:59:29.703Z,17.00
2018-10-17T18:03:02.925Z,16.90
2018-10-17T18:06:36.211Z,16.90
2018-10-17T18:10:09.588Z,16.90
2018-10-17T18:13:43.100Z,16.80
2018-10-17T18:17:16.787Z,16.80
2018-10-17T18:20:50.040Z,16.70
2018-10-17T18:24:23.301Z,16.60
2018-10-17T18:27:57.654Z,16.50
2018-10-17T18:31:31.376Z,16.40
2018-10-17T18:35:05.392Z,16.30
2018-10-17T18:38:38.652Z,16.30
2018-10-17T18:42:11.917Z,16.20
2018-10-17T18:45:45.595Z,16.20
2018-10-17T18:49:18.812Z,16.10
2018-10-17T18:52:52.053Z,16.10
2018-10-17T18:56:25.305Z,16.10
2018-10-17T18:59:58.560Z,16.00
2018-10-17T19:03:31.812Z,16.00
2018-10-17T19:07:06.026Z,15.90
2018-10-17T19:10:39.253Z,15.80
2018-10-17T19:14:12.504Z,15.70
2018-10-17T19:17:47.276Z,15.60
2018-10-17T19:21:20.638Z,15.60
2018-10-17T19:24:54.088Z,15.60
2018-10-17T19:28:27.357Z,15.60
2018-10-17T19:32:00.789Z,15.50
2018-10-17T19:35:34.067Z,15.40
2018-10-17T19:39:09.141Z,15.30
2018-10-17T19:42:42.369Z,15.30
2018-10-17T19:46:15.636Z,15.20
2018-10-17T19:49:49.201Z,15.10
2018-10-17T19:53:22.574Z,15.10
2018-10-17T19:56:55.848Z,15.10
2018-10-17T20:00:29.081Z,15.10
2018-10-17T20:04:02.341Z,15.00
2018-10-17T20:07:35.655Z,15.00
2018-10-17T20:11:08.873Z,15.00
2018-10-17T20:14:42.146Z,14.90
2018-10-17T20:18:15.457Z,14.90
2018-10-17T20:21:49.464Z,14.90
2018-10-17T20:25:23.065Z,14.90
2018-10-17T20:28:58.534Z,14.90
2018-10-17T20:32:32.657Z,14.90
2018-10-17T20:36:06.893Z,14.80
2018-10-17T20:39:40.379Z,14.70
2018-10-17T20:43:13.779Z,14.60
2018-10-17T20:46:47.878Z,14.50
2018-10-17T20:50:21.275Z,14.40
2018-10-17T20:53:54.627Z,14.30
2018-10-17T20:57:28.017Z,14.20
2018-10-17T21:01:01.399Z,14.20
2018-10-17T21:04:35.839Z,14.10
2018-10-17T21:08:09.721Z,14.10
2018-10-17T21:11:43.163Z,14.10
2018-10-17T21:15:16.624Z,14.10
2018-10-17T21:18:50.604Z,14.10
2018-10-17T21:22:24.629Z,14.10
2018-10-17T21:25:58.325Z,14.10
2018-10-17T21:29:31.916Z,14.10
2018-10-17T21:33:05.460Z,14.10
2018-10-17T21:36:38.733Z,14.10
2018-10-17T21:40:12.033Z,14.10
2018-10-17T21:43:45.259Z,14.00
2018-10-17T21:47:18.563Z,14.00
2018-10-17T21:50:51.761Z,13.90
2018-10-17T21:54:25.006Z,13.80
2018-10-17T21:57:58.248Z,13.80
2018-10-17T22:01:31.491Z,13.70
2018-10-17T22:05:06.342Z,13.60
2018-10-17T22:08:39.580Z,13.50
2018-10-17T22:12:12.836Z,13.50
2018-10-17T22:15:46.084Z,13.40
2018-10-17T22:19:19.559Z,13.30
2018-10-17T22:22:52.585Z,13.30
2018-10-17T22:26:25.848Z,13.30
2018-10-17T22:29:59.134Z,13.30
2018-10-17T22:33:32.379Z,13.30
2018-10-17T22:37:06.443Z,13.30
2018-10-17T22:40:39.688Z,13.30
2018-10-17T22:44:13.013Z,13.20
2018-10-17T22:47:46.229Z,13.10
2018-10-17T22:51:19.508Z,13.10
2018-10-17T22:54:52.774Z,13.00
2018-10-17T22:58:26.090Z,12.90
2018-10-17T23:01:59.345Z,12.90
2018-10-17T23:05:32.589Z,12.80
2018-10-17T23:09:10.349Z,12.70
2018-10-17T23:12:43.575Z,12.70
2018-10-17T23:16:16.824Z,12.70
2018-10-17T23:19:50.074Z,12.60
2018-10-17T23:23:23.308Z,12.60
2018-10-17T23:26:56.558Z,12.60
2018-10-17T23:30:29.802Z,12.60
2018-10-17T23:34:03.067Z,12.60
2018-10-17T23:37:36.325Z,12.60
2018-10-17T23:41:09.580Z,12.50
2018-10-17T23:44:42.882Z,12.50
2018-10-17T23:48:16.202Z,12.50
2018-10-17T23:51:49.363Z,12.50
2018-10-17T23:55:22.605Z,12.50
2018-10-17T23:58:55.852Z,12.50
